sensor_id;sensor_type;location;lat;lon;timestamp;pressure;altitude;pressure_sealevel;temperature;humidity
69153;BME280;56261;51.580;4.578;2023-03-19T00:01:43;101128.22;;;10.61;100.00
69153;BME280;56261;51.580;4.578;2023-03-19T00:04:08;101144.75;;;10.81;100.00
69153;BME280;56261;51.580;4.578;2023-03-19T00:06:34;101134.09;;;10.89;100.00
69153;BME280;56261;51.580;4.578;2023-03-19T00:09:01;101142.44;;;10.86;100.00
69153;BME280;56261;51.580;4.578;2023-03-19T00:11:26;101140.75;;;10.93;100.00
69153;BME280;56261;51.580;4.578;2023-03-19T00:13:51;101138.44;;;10.90;100.00
69153;BME280;56261;51.580;4.578;2023-03-19T00:16:17;101145.41;;;10.75;100.00
69153;BME280;56261;51.580;4.578;2023-03-19T00:18:42;101144.75;;;10.81;100.00
69153;BME280;56261;51.580;4.578;2023-03-19T00:21:08;101140.78;;;10.85;100.00
69153;BME280;56261;51.580;4.578;2023-03-19T00:23:34;101145.41;;;10.75;100.00
69153;BME280;56261;51.580;4.578;2023-03-19T00:26:00;101140.22;;;10.65;100.00
69153;BME280;56261;51.580;4.578;2023-03-19T00:28:26;101157.03;;;10.57;100.00
69153;BME280;56261;51.580;4.578;2023-03-19T00:30:52;101158.47;;;10.44;100.00
69153;BME280;56261;51.580;4.578;2023-03-19T00:33:17;101158.81;;;10.41;100.00
69153;BME280;56261;51.580;4.578;2023-03-19T00:35:44;101164.09;;;10.32;100.00
69153;BME280;56261;51.580;4.578;2023-03-19T00:38:10;101152.59;;;10.32;100.00
69153;BME280;56261;51.580;4.578;2023-03-19T00:40:35;101170.94;;;10.35;100.00
69153;BME280;56261;51.580;4.578;2023-03-19T00:43:01;101169.59;;;10.31;100.00
69153;BME280;56261;51.580;4.578;2023-03-19T00:45:26;101176.38;;;10.25;100.00
69153;BME280;56261;51.580;4.578;2023-03-19T00:47:54;101172.97;;;10.15;100.00
69153;BME280;56261;51.580;4.578;2023-03-19T00:50:20;101164.44;;;10.03;100.00
69153;BME280;56261;51.580;4.578;2023-03-19T00:52:45;101166.56;;;10.00;100.00
69153;BME280;56261;51.580;4.578;2023-03-19T00:55:11;101180.50;;;9.93;100.00
69153;BME280;56261;51.580;4.578;2023-03-19T00:57:36;101172.72;;;10.00;100.00
69153;BME280;56261;51.580;4.578;2023-03-19T01:00:03;101169.03;;;9.93;100.00
69153;BME280;56261;51.580;4.578;2023-03-19T01:02:30;101169.03;;;9.93;100.00
69153;BME280;56261;51.580;4.578;2023-03-19T01:04:56;101181.16;;;9.87;100.00
69153;BME280;56261;51.580;4.578;2023-03-19T01:07:21;101180.56;;;9.75;100.00
69153;BME280;56261;51.580;4.578;2023-03-19T01:09:47;101178.56;;;9.77;100.00
69153;BME280;56261;51.580;4.578;2023-03-19T01:12:12;101180.06;;;9.72;100.00
69153;BME280;56261;51.580;4.578;2023-03-19T01:14:37;101174.56;;;9.73;100.00
69153;BME280;56261;51.580;4.578;2023-03-19T01:17:03;101173.69;;;9.65;100.00
69153;BME280;56261;51.580;4.578;2023-03-19T01:19:28;101190.88;;;9.52;100.00
69153;BME280;56261;51.580;4.578;2023-03-19T01:21:54;101185.25;;;9.55;100.00
69153;BME280;56261;51.580;4.578;2023-03-19T01:24:19;101184.13;;;9.58;100.00
69153;BME280;56261;51.580;4.578;2023-03-19T01:26:45;101182.69;;;9.46;100.00
69153;BME280;56261;51.580;4.578;2023-03-19T01:29:10;101184.94;;;9.59;100.00
69153;BME280;56261;51.580;4.578;2023-03-19T01:31:36;101186.56;;;9.51;100.00
69153;BME280;56261;51.580;4.578;2023-03-19T01:34:01;101188.69;;;9.48;100.00
69153;BME280;56261;51.580;4.578;2023-03-19T01:36:27;101195.75;;;9.39;100.00
69153;BME280;56261;51.580;4.578;2023-03-19T01:38:53;101191.50;;;9.28;100.00
69153;BME280;56261;51.580;4.578;2023-03-19T01:41:19;101193.56;;;9.34;100.00
69153;BME280;56261;51.580;4.578;2023-03-19T01:43:45;101193.19;;;9.29;100.00
69153;BME280;56261;51.580;4.578;2023-03-19T01:46:25;101193.94;;;9.22;100.00
69153;BME280;56261;51.580;4.578;2023-03-19T01:48:53;101183.69;;;9.27;100.00
69153;BME280;56261;51.580;4.578;2023-03-19T01:51:23;101192.66;;;9.26;100.00
69153;BME280;56261;51.580;4.578;2023-03-19T01:53:53;101187.31;;;9.26;100.00
69153;BME280;56261;51.580;4.578;2023-03-19T01:56:26;101195.06;;;9.19;100.00
69153;BME280;56261;51.580;4.578;2023-03-19T01:58:56;101197.38;;;9.14;100.00
69153;BME280;56261;51.580;4.578;2023-03-19T02:01:22;101202.78;;;9.04;100.00
69153;BME280;56261;51.580;4.578;2023-03-19T02:03:49;101202.31;;;9.09;100.00
69153;BME280;56261;51.580;4.578;2023-03-19T02:06:18;101198.28;;;9.05;100.00
69153;BME280;56261;51.580;4.578;2023-03-19T02:08:45;101199.69;;;8.99;100.00
69153;BME280;56261;51.580;4.578;2023-03-19T02:11:11;101190.91;;;8.99;100.00
69153;BME280;56261;51.580;4.578;2023-03-19T02:13:36;101187.78;;;9.03;100.00
69153;BME280;56261;51.580;4.578;2023-03-19T02:16:02;101202.31;;;8.91;100.00
69153;BME280;56261;51.580;4.578;2023-03-19T02:18:29;101194.22;;;8.83;100.00
69153;BME280;56261;51.580;4.578;2023-03-19T02:26:24;101204.72;;;8.84;100.00
69153;BME280;56261;51.580;4.578;2023-03-19T02:28:52;101206.69;;;8.82;100.00
69153;BME280;56261;51.580;4.578;2023-03-19T02:31:18;101198.59;;;8.74;100.00
69153;BME280;56261;51.580;4.578;2023-03-19T02:33:58;101200.72;;;8.70;100.00
69153;BME280;56261;51.580;4.578;2023-03-19T02:36:26;101194.53;;;8.80;100.00
69153;BME280;56261;51.580;4.578;2023-03-19T02:38:57;101196.31;;;8.79;100.00
69153;BME280;56261;51.580;4.578;2023-03-19T02:41:25;101197.91;;;8.72;100.00
69153;BME280;56261;51.580;4.578;2023-03-19T02:43:52;101201.84;;;8.68;100.00
69153;BME280;56261;51.580;4.578;2023-03-19T02:46:18;101198.91;;;8.71;100.00
69153;BME280;56261;51.580;4.578;2023-03-19T02:48:43;101202.25;;;8.73;100.00
69153;BME280;56261;51.580;4.578;2023-03-19T02:51:09;101197.38;;;8.68;100.00
69153;BME280;56261;51.580;4.578;2023-03-19T02:53:34;101192.91;;;8.69;100.00
69153;BME280;56261;51.580;4.578;2023-03-19T02:56:01;101202.84;;;8.67;100.00
69153;BME280;56261;51.580;4.578;2023-03-19T02:58:26;101201.03;;;8.67;100.00
69153;BME280;56261;51.580;4.578;2023-03-19T03:00:51;101211.97;;;8.64;100.00
69153;BME280;56261;51.580;4.578;2023-03-19T03:03:17;101204.81;;;8.65;100.00
69153;BME280;56261;51.580;4.578;2023-03-19T03:05:42;101194.91;;;8.57;100.00
69153;BME280;56261;51.580;4.578;2023-03-19T03:08:08;101201.91;;;8.58;100.00
69153;BME280;56261;51.580;4.578;2023-03-19T03:10:33;101188.69;;;8.48;100.00
69153;BME280;56261;51.580;4.578;2023-03-19T03:12:59;101199.31;;;8.48;100.00
69153;BME280;56261;51.580;4.578;2023-03-19T03:15:25;101188.25;;;8.43;100.00
69153;BME280;56261;51.580;4.578;2023-03-19T03:17:51;101194.28;;;8.36;100.00
69153;BME280;56261;51.580;4.578;2023-03-19T03:20:17;101194.28;;;8.36;100.00
69153;BME280;56261;51.580;4.578;2023-03-19T03:22:44;101196.84;;;8.27;100.00
69153;BME280;56261;51.580;4.578;2023-03-19T03:25:09;101203.84;;;8.28;100.00
69153;BME280;56261;51.580;4.578;2023-03-19T03:27:36;101206.34;;;8.30;100.00
69153;BME280;56261;51.580;4.578;2023-03-19T03:30:03;101206.94;;;8.24;100.00
69153;BME280;56261;51.580;4.578;2023-03-19T03:32:29;101216.25;;;8.38;100.00
69153;BME280;56261;51.580;4.578;2023-03-19T03:34:54;101209.94;;;8.39;100.00
69153;BME280;56261;51.580;4.578;2023-03-19T03:37:20;101208.94;;;8.49;100.00
69153;BME280;56261;51.580;4.578;2023-03-19T03:39:45;101210.66;;;8.41;100.00
69153;BME280;56261;51.580;4.578;2023-03-19T03:42:11;101207.47;;;8.27;100.00
69153;BME280;56261;51.580;4.578;2023-03-19T03:44:36;101203.59;;;8.22;100.00
69153;BME280;56261;51.580;4.578;2023-03-19T03:47:02;101209.78;;;8.03;100.00
69153;BME280;56261;51.580;4.578;2023-03-19T03:49:27;101211.91;;;7.99;100.00
69153;BME280;56261;51.580;4.578;2023-03-19T03:51:53;101207.16;;;7.93;100.00
69153;BME280;56261;51.580;4.578;2023-03-19T03:54:18;101210.94;;;7.90;100.00
69153;BME280;56261;51.580;4.578;2023-03-19T03:56:43;101209.56;;;7.86;100.00
69153;BME280;56261;51.580;4.578;2023-03-19T03:59:09;101218.91;;;7.81;100.00
69153;BME280;56261;51.580;4.578;2023-03-19T04:01:35;101216.16;;;7.73;100.00
69153;BME280;56261;51.580;4.578;2023-03-19T04:04:00;101216.84;;;7.65;100.00
69153;BME280;56261;51.580;4.578;2023-03-19T04:06:27;101214.75;;;7.59;100.00
69153;BME280;56261;51.580;4.578;2023-03-19T04:08:52;101208.06;;;7.55;100.00
69153;BME280;56261;51.580;4.578;2023-03-19T04:11:18;101212.66;;;7.53;100.00
69153;BME280;56261;51.580;4.578;2023-03-19T04:13:44;101211.41;;;7.47;100.00
69153;BME280;56261;51.580;4.578;2023-03-19T04:16:09;101208.91;;;7.55;100.00
69153;BME280;56261;51.580;4.578;2023-03-19T04:18:36;101205.69;;;7.61;100.00
69153;BME280;56261;51.580;4.578;2023-03-19T04:21:05;101208.59;;;7.58;100.00
69153;BME280;56261;51.580;4.578;2023-03-19T04:23:31;101200.94;;;7.55;100.00
69153;BME280;56261;51.580;4.578;2023-03-19T04:26:00;101209.03;;;7.54;100.00
69153;BME280;56261;51.580;4.578;2023-03-19T04:28:27;101212.41;;;7.46;100.00
69153;BME280;56261;51.580;4.578;2023-03-19T04:30:58;101207.34;;;7.43;100.00
69153;BME280;56261;51.580;4.578;2023-03-19T04:33:23;101215.59;;;7.49;100.00
69153;BME280;56261;51.580;4.578;2023-03-19T04:35:49;101208.88;;;7.45;100.00
69153;BME280;56261;51.580;4.578;2023-03-19T04:38:15;101222.56;;;7.41;100.00
69153;BME280;56261;51.580;4.578;2023-03-19T04:40:40;101213.38;;;7.35;100.00
69153;BME280;56261;51.580;4.578;2023-03-19T04:43:06;101217.69;;;7.26;100.00
69153;BME280;56261;51.580;4.578;2023-03-19T04:45:31;101227.31;;;7.18;100.00
69153;BME280;56261;51.580;4.578;2023-03-19T04:47:57;101225.50;;;7.09;100.00
69153;BME280;56261;51.580;4.578;2023-03-19T04:50:22;101230.38;;;7.03;100.00
69153;BME280;56261;51.580;4.578;2023-03-19T04:52:48;101220.59;;;7.04;100.00
69153;BME280;56261;51.580;4.578;2023-03-19T04:55:14;101228.13;;;6.99;100.00
69153;BME280;56261;51.580;4.578;2023-03-19T04:57:39;101242.06;;;6.91;100.00
69153;BME280;56261;51.580;4.578;2023-03-19T05:00:05;101243.47;;;6.85;100.00
69153;BME280;56261;51.580;4.578;2023-03-19T05:02:31;101250.84;;;6.92;100.00
69153;BME280;56261;51.580;4.578;2023-03-19T05:04:56;101242.59;;;6.85;100.00
69153;BME280;56261;51.580;4.578;2023-03-19T05:07:21;101243.31;;;6.87;100.00
69153;BME280;56261;51.580;4.578;2023-03-19T05:09:47;101253.06;;;6.86;100.00
69153;BME280;56261;51.580;4.578;2023-03-19T05:12:12;101250.56;;;6.85;100.00
69153;BME280;56261;51.580;4.578;2023-03-19T05:14:38;101253.91;;;6.87;100.00
69153;BME280;56261;51.580;4.578;2023-03-19T05:17:04;101258.28;;;6.98;100.00
69153;BME280;56261;51.580;4.578;2023-03-19T05:19:29;101253.25;;;6.95;100.00
69153;BME280;56261;51.580;4.578;2023-03-19T05:21:55;101262.31;;;6.92;100.00
69153;BME280;56261;51.580;4.578;2023-03-19T05:24:22;101261.44;;;6.92;100.00
69153;BME280;56261;51.580;4.578;2023-03-19T05:26:48;101252.50;;;6.83;100.00
69153;BME280;56261;51.580;4.578;2023-03-19T05:29:14;101261.00;;;6.77;100.00
69153;BME280;56261;51.580;4.578;2023-03-19T05:31:40;101264.31;;;6.69;100.00
69153;BME280;56261;51.580;4.578;2023-03-19T05:34:05;101271.72;;;6.65;100.00
69153;BME280;56261;51.580;4.578;2023-03-19T05:36:32;101274.88;;;6.59;100.00
69153;BME280;56261;51.580;4.578;2023-03-19T05:38:57;101281.69;;;6.52;100.00
69153;BME280;56261;51.580;4.578;2023-03-19T05:41:23;101283.75;;;6.49;100.00
69153;BME280;56261;51.580;4.578;2023-03-19T05:43:48;101285.19;;;6.53;100.00
69153;BME280;56261;51.580;4.578;2023-03-19T05:46:13;101292.84;;;6.56;100.00
69153;BME280;56261;51.580;4.578;2023-03-19T05:48:39;101298.75;;;6.59;100.00
69153;BME280;56261;51.580;4.578;2023-03-19T05:51:04;101309.66;;;6.66;100.00
69153;BME280;56261;51.580;4.578;2023-03-19T05:53:30;101303.28;;;6.78;100.00
69153;BME280;56261;51.580;4.578;2023-03-19T05:55:55;101309.75;;;6.95;100.00
69153;BME280;56261;51.580;4.578;2023-03-19T05:58:20;101304.63;;;7.03;100.00
69153;BME280;56261;51.580;4.578;2023-03-19T06:00:46;101312.03;;;7.10;100.00
69153;BME280;56261;51.580;4.578;2023-03-19T06:03:13;101312.72;;;7.12;100.00
69153;BME280;56261;51.580;4.578;2023-03-19T06:05:38;101312.88;;;7.10;100.00
69153;BME280;56261;51.580;4.578;2023-03-19T06:08:04;101313.56;;;7.12;100.00
69153;BME280;56261;51.580;4.578;2023-03-19T06:10:30;101316.97;;;7.24;100.00
69153;BME280;56261;51.580;4.578;2023-03-19T06:12:56;101320.63;;;7.33;100.00
69153;BME280;56261;51.580;4.578;2023-03-19T06:15:21;101313.38;;;7.35;100.00
69153;BME280;56261;51.580;4.578;2023-03-19T06:17:46;101317.69;;;7.45;100.00
69153;BME280;56261;51.580;4.578;2023-03-19T06:20:12;101316.19;;;7.53;100.00
69153;BME280;56261;51.580;4.578;2023-03-19T06:22:39;101332.25;;;7.61;100.00
69153;BME280;56261;51.580;4.578;2023-03-19T06:25:04;101328.47;;;7.54;100.00
69153;BME280;56261;51.580;4.578;2023-03-19T06:27:30;101340.50;;;7.58;100.00
69153;BME280;56261;51.580;4.578;2023-03-19T06:29:56;101337.84;;;7.67;100.00
69153;BME280;56261;51.580;4.578;2023-03-19T06:32:21;101339.25;;;7.72;100.00
69153;BME280;56261;51.580;4.578;2023-03-19T06:34:46;101340.22;;;7.71;100.00
69153;BME280;56261;51.580;4.578;2023-03-19T06:37:12;101349.03;;;7.81;100.00
69153;BME280;56261;51.580;4.578;2023-03-19T06:39:37;101351.13;;;7.87;100.00
69153;BME280;56261;51.580;4.578;2023-03-19T06:42:03;101344.56;;;7.91;100.00
69153;BME280;56261;51.580;4.578;2023-03-19T06:44:29;101336.59;;;7.91;100.00
69153;BME280;56261;51.580;4.578;2023-03-19T06:46:54;101349.72;;;8.02;100.00
69153;BME280;56261;51.580;4.578;2023-03-19T06:49:19;101350.56;;;8.03;100.00
69153;BME280;56261;51.580;4.578;2023-03-19T06:51:46;101351.25;;;8.15;100.00
69153;BME280;56261;51.580;4.578;2023-03-19T06:54:11;101361.03;;;8.14;100.00
69153;BME280;56261;51.580;4.578;2023-03-19T06:56:36;101360.06;;;8.25;100.00
69153;BME280;56261;51.580;4.578;2023-03-19T06:59:02;101360.75;;;8.37;100.00
69153;BME280;56261;51.580;4.578;2023-03-19T07:01:27;101362.84;;;8.52;100.00
69153;BME280;56261;51.580;4.578;2023-03-19T07:03:53;101358.47;;;8.61;100.00
69153;BME280;56261;51.580;4.578;2023-03-19T07:06:19;101366.00;;;8.76;100.00
69153;BME280;56261;51.580;4.578;2023-03-19T07:08:44;101354.50;;;8.85;100.00
69153;BME280;56261;51.580;4.578;2023-03-19T07:11:11;101352.78;;;8.93;100.00
69153;BME280;56261;51.580;4.578;2023-03-19T07:13:37;101349.00;;;8.96;100.00
69153;BME280;56261;51.580;4.578;2023-03-19T07:16:03;101354.44;;;9.04;100.00
69153;BME280;56261;51.580;4.578;2023-03-19T07:18:28;101356.66;;;9.09;100.00
69153;BME280;56261;51.580;4.578;2023-03-19T07:20:54;101352.81;;;9.39;100.00
69153;BME280;56261;51.580;4.578;2023-03-19T07:23:20;101360.47;;;9.52;100.00
69153;BME280;56261;51.580;4.578;2023-03-19T07:25:45;101358.47;;;9.36;100.00
69153;BME280;56261;51.580;4.578;2023-03-19T07:28:14;101361.56;;;9.31;100.00
69153;BME280;56261;51.580;4.578;2023-03-19T07:30:40;101361.22;;;9.17;100.00
69153;BME280;56261;51.580;4.578;2023-03-19T07:33:06;101372.41;;;9.20;100.00
69153;BME280;56261;51.580;4.578;2023-03-19T07:35:33;101371.22;;;9.32;100.00
69153;BME280;56261;51.580;4.578;2023-03-19T07:37:59;101379.00;;;9.16;100.00
69153;BME280;56261;51.580;4.578;2023-03-19T07:40:25;101387.91;;;8.97;100.00
69153;BME280;56261;51.580;4.578;2023-03-19T07:42:50;101386.81;;;8.90;100.00
69153;BME280;56261;51.580;4.578;2023-03-19T07:45:16;101387.38;;;8.84;100.00
69153;BME280;56261;51.580;4.578;2023-03-19T07:47:41;101395.13;;;9.14;100.00
69153;BME280;56261;51.580;4.578;2023-03-19T07:50:07;101388.81;;;9.43;100.00
69153;BME280;56261;51.580;4.578;2023-03-19T07:52:33;101388.44;;;9.38;100.00
69153;BME280;56261;51.580;4.578;2023-03-19T07:54:58;101379.72;;;9.64;100.00
69153;BME280;56261;51.580;4.578;2023-03-19T07:57:24;101391.41;;;9.81;100.00
69153;BME280;56261;51.580;4.578;2023-03-19T07:59:50;101387.94;;;9.52;100.00
69153;BME280;56261;51.580;4.578;2023-03-19T08:02:16;101395.09;;;9.52;100.00
69153;BME280;56261;51.580;4.578;2023-03-19T08:04:42;101397.88;;;9.50;100.00
69153;BME280;56261;51.580;4.578;2023-03-19T08:07:07;101394.16;;;9.43;100.00
69153;BME280;56261;51.580;4.578;2023-03-19T08:09:36;101405.06;;;9.68;100.00
69153;BME280;56261;51.580;4.578;2023-03-19T08:12:03;101402.50;;;9.76;100.00
69153;BME280;56261;51.580;4.578;2023-03-19T08:14:28;101407.06;;;9.84;100.00
69153;BME280;56261;51.580;4.578;2023-03-19T08:16:53;101404.94;;;9.69;100.00
69153;BME280;56261;51.580;4.578;2023-03-19T08:19:19;101410.09;;;9.71;100.00
69153;BME280;56261;51.580;4.578;2023-03-19T08:21:44;101422.06;;;9.67;100.00
69153;BME280;56261;51.580;4.578;2023-03-19T08:24:10;101414.03;;;9.49;100.00
69153;BME280;56261;51.580;4.578;2023-03-19T08:26:36;101408.56;;;9.68;100.00
69153;BME280;56261;51.580;4.578;2023-03-19T08:29:02;101420.25;;;9.85;100.00
69153;BME280;56261;51.580;4.578;2023-03-19T08:31:28;101419.72;;;10.17;100.00
69153;BME280;56261;51.580;4.578;2023-03-19T08:33:54;101416.94;;;10.37;100.00
69153;BME280;56261;51.580;4.578;2023-03-19T08:36:20;101417.59;;;10.57;100.00
69153;BME280;56261;51.580;4.578;2023-03-19T08:38:46;101422.88;;;10.75;100.00
69153;BME280;56261;51.580;4.578;2023-03-19T08:41:11;101423.91;;;10.82;100.00
69153;BME280;56261;51.580;4.578;2023-03-19T08:43:37;101422.53;;;10.70;100.00
69153;BME280;56261;51.580;4.578;2023-03-19T08:46:04;101430.44;;;10.62;100.00
69153;BME280;56261;51.580;4.578;2023-03-19T08:48:30;101432.03;;;10.72;100.00
69153;BME280;56261;51.580;4.578;2023-03-19T08:51:00;101429.88;;;10.76;100.00
69153;BME280;56261;51.580;4.578;2023-03-19T08:53:27;101439.34;;;10.70;100.00
69153;BME280;56261;51.580;4.578;2023-03-19T08:55:58;101435.31;;;10.66;100.00
69153;BME280;56261;51.580;4.578;2023-03-19T08:58:24;101431.84;;;10.48;100.00
69153;BME280;56261;51.580;4.578;2023-03-19T09:00:51;101447.63;;;10.85;100.00
69153;BME280;56261;51.580;4.578;2023-03-19T09:03:18;101442.53;;;10.48;100.00
69153;BME280;56261;51.580;4.578;2023-03-19T09:05:44;101441.78;;;10.82;100.00
69153;BME280;56261;51.580;4.578;2023-03-19T09:08:09;101446.06;;;10.74;100.00
69153;BME280;56261;51.580;4.578;2023-03-19T09:10:35;101448.94;;;10.81;100.00
69153;BME280;56261;51.580;4.578;2023-03-19T09:13:01;101457.41;;;10.76;100.00
69153;BME280;56261;51.580;4.578;2023-03-19T09:15:27;101467.22;;;10.76;100.00
69153;BME280;56261;51.580;4.578;2023-03-19T09:17:52;101470.66;;;10.86;100.00
69153;BME280;56261;51.580;4.578;2023-03-19T09:20:17;101474.38;;;10.67;100.00
69153;BME280;56261;51.580;4.578;2023-03-19T09:22:43;101484.25;;;10.75;100.00
69153;BME280;56261;51.580;4.578;2023-03-19T09:25:09;101471.47;;;10.61;100.00
69153;BME280;56261;51.580;4.578;2023-03-19T09:27:34;101481.22;;;10.52;100.00
69153;BME280;56261;51.580;4.578;2023-03-19T09:30:00;101471.53;;;10.33;100.00
69153;BME280;56261;51.580;4.578;2023-03-19T09:32:25;101487.72;;;10.49;100.00
69153;BME280;56261;51.580;4.578;2023-03-19T09:34:50;101486.22;;;10.19;100.00
69153;BME280;56261;51.580;4.578;2023-03-19T09:37:16;101491.50;;;10.47;100.00
69153;BME280;56261;51.580;4.578;2023-03-19T09:39:42;101496.00;;;10.64;100.00
69153;BME280;56261;51.580;4.578;2023-03-19T09:44:57;101499.19;;;10.68;100.00
69153;BME280;56261;51.580;4.578;2023-03-19T09:49:54;101509.16;;;10.84;100.00
69153;BME280;56261;51.580;4.578;2023-03-19T09:52:43;101516.91;;;10.95;100.00
69153;BME280;56261;51.580;4.578;2023-03-19T09:57:54;101520.81;;;10.83;100.00
69153;BME280;56261;51.580;4.578;2023-03-19T10:00:24;101522.81;;;10.98;100.00
69153;BME280;56261;51.580;4.578;2023-03-19T10:06:36;101522.81;;;10.98;100.00
69153;BME280;56261;51.580;4.578;2023-03-19T10:09:44;101531.63;;;10.99;100.00
69153;BME280;56261;51.580;4.578;2023-03-19T10:12:40;101531.63;;;10.99;100.00
69153;BME280;56261;51.580;4.578;2023-03-19T10:20:27;101537.91;;;10.90;100.00
69153;BME280;56261;51.580;4.578;2023-03-19T10:23:00;101544.13;;;11.16;100.00
69153;BME280;56261;51.580;4.578;2023-03-19T10:25:28;101545.22;;;10.88;100.00
69153;BME280;56261;51.580;4.578;2023-03-19T10:28:14;101545.13;;;10.97;100.00
69153;BME280;56261;51.580;4.578;2023-03-19T10:30:44;101549.56;;;10.89;100.00
69153;BME280;56261;51.580;4.578;2023-03-19T10:35:44;101553.72;;;11.09;100.00
69153;BME280;56261;51.580;4.578;2023-03-19T10:38:20;101552.41;;;11.13;100.00
69153;BME280;56261;51.580;4.578;2023-03-19T10:41:15;101558.22;;;11.09;100.00
69153;BME280;56261;51.580;4.578;2023-03-19T10:43:50;101555.97;;;10.78;100.00
69153;BME280;56261;51.580;4.578;2023-03-19T10:46:16;101564.41;;;10.91;100.00
69153;BME280;56261;51.580;4.578;2023-03-19T10:48:43;101565.44;;;10.90;100.00
69153;BME280;56261;51.580;4.578;2023-03-19T10:51:13;101565.31;;;11.00;100.00
69153;BME280;56261;51.580;4.578;2023-03-19T10:53:40;101571.59;;;10.91;100.00
69153;BME280;56261;51.580;4.578;2023-03-19T10:56:24;101567.84;;;11.01;100.00
69153;BME280;56261;51.580;4.578;2023-03-19T10:59:26;101568.94;;;10.91;100.00
69153;BME280;56261;51.580;4.578;2023-03-19T11:01:58;101574.66;;;10.78;100.00
69153;BME280;56261;51.580;4.578;2023-03-19T11:04:26;101584.41;;;11.05;100.00
69153;BME280;56261;51.580;4.578;2023-03-19T11:06:54;101578.13;;;11.14;100.00
69153;BME280;56261;51.580;4.578;2023-03-19T11:09:31;101581.97;;;11.38;100.00
69153;BME280;56261;51.580;4.578;2023-03-19T11:12:06;101580.38;;;11.01;100.00
69153;BME280;56261;51.580;4.578;2023-03-19T11:14:37;101584.09;;;11.08;100.00
69153;BME280;56261;51.580;4.578;2023-03-19T11:19:57;101585.72;;;11.01;100.00
69153;BME280;56261;51.580;4.578;2023-03-19T11:22:29;101583.56;;;10.87;100.00
69153;BME280;56261;51.580;4.578;2023-03-19T11:25:46;101596.53;;;10.82;100.00
69153;BME280;56261;51.580;4.578;2023-03-19T11:28:00;101589.34;;;11.00;100.00
69153;BME280;56261;51.580;4.578;2023-03-19T11:36:04;101602.00;;;10.98;100.00
69153;BME280;56261;51.580;4.578;2023-03-19T11:38:43;101600.09;;;11.08;100.00
69153;BME280;56261;51.580;4.578;2023-03-19T11:41:22;101598.22;;;11.71;100.00
69153;BME280;56261;51.580;4.578;2023-03-19T11:44:37;101595.88;;;12.44;100.00
69153;BME280;56261;51.580;4.578;2023-03-19T11:47:16;101588.34;;;12.56;100.00
69153;BME280;56261;51.580;4.578;2023-03-19T11:50:00;101593.84;;;12.30;100.00
69153;BME280;56261;51.580;4.578;2023-03-19T11:52:49;101597.59;;;12.95;100.00
69153;BME280;56261;51.580;4.578;2023-03-19T12:11:24;101581.03;;;13.07;100.00
69153;BME280;56261;51.580;4.578;2023-03-19T12:14:29;101580.53;;;13.12;100.00
69153;BME280;56261;51.580;4.578;2023-03-19T12:30:28;101579.38;;;12.98;100.00
69153;BME280;56261;51.580;4.578;2023-03-19T12:33:07;101591.25;;;13.53;100.00
69153;BME280;56261;51.580;4.578;2023-03-19T12:35:39;101583.38;;;13.27;100.00
69153;BME280;56261;51.580;4.578;2023-03-19T12:40:39;101580.22;;;13.15;100.00
69153;BME280;56261;51.580;4.578;2023-03-19T12:46:04;101585.38;;;13.58;100.00
69153;BME280;56261;51.580;4.578;2023-03-19T12:48:37;101585.44;;;13.33;100.00
69153;BME280;56261;51.580;4.578;2023-03-19T12:51:08;101595.78;;;13.12;100.00
69153;BME280;56261;51.580;4.578;2023-03-19T12:53:45;101584.88;;;12.72;100.00
69153;BME280;56261;51.580;4.578;2023-03-19T12:58:58;101599.31;;;13.04;100.00
69153;BME280;56261;51.580;4.578;2023-03-19T13:01:31;101595.09;;;13.26;100.00
69153;BME280;56261;51.580;4.578;2023-03-19T13:06:52;101597.78;;;12.93;100.00
69153;BME280;56261;51.580;4.578;2023-03-19T13:12:12;101611.00;;;12.86;100.00
69153;BME280;56261;51.580;4.578;2023-03-19T13:19:51;101615.53;;;12.86;100.00
69153;BME280;56261;51.580;4.578;2023-03-19T13:22:24;101621.72;;;12.86;100.00
69153;BME280;56261;51.580;4.578;2023-03-19T13:24:53;101626.41;;;12.93;100.00
69153;BME280;56261;51.580;4.578;2023-03-19T13:27:30;101640.41;;;12.70;100.00
69153;BME280;56261;51.580;4.578;2023-03-19T13:32:52;101641.78;;;12.23;100.00
69153;BME280;56261;51.580;4.578;2023-03-19T13:37:59;101639.19;;;12.56;100.00
69153;BME280;56261;51.580;4.578;2023-03-19T13:40:49;101634.09;;;11.94;100.00
69153;BME280;56261;51.580;4.578;2023-03-19T13:46:09;101640.81;;;12.41;100.00
69153;BME280;56261;51.580;4.578;2023-03-19T13:48:52;101638.22;;;12.15;100.00
69153;BME280;56261;51.580;4.578;2023-03-19T13:54:11;101642.03;;;12.12;100.00
69153;BME280;56261;51.580;4.578;2023-03-19T13:59:26;101656.63;;;12.18;100.00
69153;BME280;56261;51.580;4.578;2023-03-19T14:01:52;101660.19;;;11.92;100.00
69153;BME280;56261;51.580;4.578;2023-03-19T14:04:39;101675.84;;;11.69;100.00
69153;BME280;56261;51.580;4.578;2023-03-19T14:07:23;101674.00;;;11.88;100.00
69153;BME280;56261;51.580;4.578;2023-03-19T14:12:30;101668.03;;;11.94;100.00
69153;BME280;56261;51.580;4.578;2023-03-19T14:17:32;101685.28;;;11.55;100.00
69153;BME280;56261;51.580;4.578;2023-03-19T14:22:38;101674.88;;;11.70;100.00
69153;BME280;56261;51.580;4.578;2023-03-19T14:25:17;101687.13;;;11.81;100.00
69153;BME280;56261;51.580;4.578;2023-03-19T14:27:46;101689.63;;;11.56;100.00
69153;BME280;56261;51.580;4.578;2023-03-19T14:30:32;101690.75;;;11.28;100.00
69153;BME280;56261;51.580;4.578;2023-03-19T14:33:02;101684.63;;;11.17;100.00
69153;BME280;56261;51.580;4.578;2023-03-19T14:35:34;101696.72;;;11.12;100.00